Main page
METAR-TAF:

METAR-TAF

Airports :

Ilam, Iran

Ilam Airport

latitude: 33-35-09N, longitude: 046-24-20E, elevation: 1334 m

Current weather observation

The report was made 1 hour and 0 minutes ago, at 09:00 UTC
Wind 6 kt from the West/Northwest
Temperature 23°C
Humidity 14%
Pressure 1018 hPa
Visibility 10 km or more
no clouds below 1500 m and no cumulonimbus

METAR: OICI 220900Z 29006KT CAVOK 23/M06 Q1018 A3007

Time: 13:30 (10:00 UTC)

Forecast

The report was made 4 hours and 30 minutes ago, at 05:30 UTC
Forecast valid from 22 at 06 UTC to 23 at 12 UTC
Wind 6 kt from the West/Southwest
Visibility 10 km or more
no clouds below 1500 m and no cumulonimbus
Temporary
from 22 at 09 UTC to 22 at 15 UTC
Wind 14 kt from the West/Southwest
Becoming
from 22 at 16 UTC to 22 at 18 UTC
Wind 8 kt from the North/Northeast

TAF: OICI 220530Z 2206/2312 24003MPS CAVOK TEMPO 2209/2215 24007MPS BECMG 2216/2218 03004MPS

Weather observations and forecasts of more than 4000 airports (METAR and TAF reports).

The available stations are represented by yellow and red dots on the map.

Hover mouse over dot to see the name of the station.

Then click to see weather observations and forecasts.

To change the map : click on the green buttons with a black cross to zoom in, on the green button with a dash to zoom out, or on the green arrows for adjacent maps.


METAR-TAF: